createdAt,value
2022-11-10T19:32:07.333Z,12.78
2022-11-10T19:33:07.184Z,12.78
2022-11-10T19:35:11.103Z,12.80
2022-11-10T19:36:11.043Z,12.75
2022-11-10T19:38:14.955Z,12.75
2022-11-10T19:39:14.913Z,12.70
2022-11-10T19:41:07.776Z,12.72
2022-11-10T19:42:07.719Z,12.62
2022-11-10T19:44:11.665Z,12.62
2022-11-10T19:45:11.632Z,12.62
2022-11-10T19:47:15.641Z,12.61
2022-11-10T19:48:15.492Z,12.57
2022-11-10T19:50:08.312Z,12.64
2022-11-10T19:51:08.275Z,12.65
2022-11-10T19:53:12.204Z,12.50
2022-11-10T19:54:12.135Z,12.53
2022-11-10T19:56:16.023Z,12.54
2022-11-10T19:57:15.987Z,12.54
2022-11-10T19:59:19.913Z,12.50
2022-11-10T20:00:19.863Z,12.50
2022-11-10T20:02:23.940Z,12.54
2022-11-10T20:03:23.967Z,12.55
2022-11-10T20:05:27.606Z,12.49
2022-11-10T20:06:27.577Z,12.45
2022-11-10T20:08:31.491Z,12.55
2022-11-10T20:09:31.443Z,12.50
2022-11-10T20:11:35.335Z,12.54
2022-11-10T20:12:35.299Z,12.49
2022-11-10T20:14:39.215Z,12.36
2022-11-10T20:15:39.163Z,12.46
2022-11-10T20:17:43.185Z,12.49
2022-11-10T20:18:43.028Z,12.50
2022-11-10T20:20:35.868Z,12.36
2022-11-10T20:21:35.819Z,12.39
2022-11-10T20:23:39.730Z,12.40
2022-11-10T20:24:39.696Z,12.39
2022-11-10T20:26:43.588Z,12.36
2022-11-10T20:27:43.549Z,12.37
2022-11-10T20:29:47.467Z,12.35
2022-11-10T20:30:47.424Z,12.39
2022-11-10T20:32:51.436Z,12.39
2022-11-10T20:33:51.301Z,12.39
2022-11-10T20:35:55.282Z,12.45
2022-11-10T20:36:55.177Z,12.50
2022-11-10T20:38:59.109Z,12.35
2022-11-10T20:39:59.038Z,12.40
2022-11-10T20:40:59.011Z,12.37
2022-11-10T20:41:58.977Z,12.39
2022-11-10T20:42:58.949Z,12.36
2022-11-10T20:43:58.896Z,12.39
2022-11-10T20:44:58.895Z,12.36
2022-11-10T20:45:58.827Z,12.40
2022-11-10T20:46:58.900Z,12.45
2022-11-10T20:47:58.852Z,12.35
2022-11-10T20:48:58.712Z,12.37
2022-11-10T20:49:58.680Z,12.32
2022-11-10T20:50:58.646Z,12.40
2022-11-10T20:51:58.612Z,12.31
2022-11-10T20:52:58.575Z,12.35
2022-11-10T20:53:58.543Z,12.37
2022-11-10T20:54:58.502Z,12.36
2022-11-10T20:55:58.496Z,12.36
2022-11-10T20:56:58.433Z,12.37
2022-11-10T20:57:58.394Z,12.32
2022-11-10T20:58:58.360Z,12.31
2022-11-10T20:59:58.349Z,12.32
2022-11-10T21:00:58.292Z,12.31
2022-11-10T21:01:58.328Z,12.29
2022-11-10T21:02:58.236Z,12.29
2022-11-10T21:03:58.276Z,12.29
2022-11-10T21:04:58.144Z,12.29
2022-11-10T21:05:58.112Z,12.20
2022-11-10T21:06:58.140Z,12.21
2022-11-10T21:07:58.043Z,12.21
2022-11-10T21:08:58.014Z,12.18
2022-11-10T21:09:57.973Z,12.25
2022-11-10T21:10:57.936Z,12.21
2022-11-10T21:11:57.944Z,12.24
2022-11-10T21:12:57.860Z,12.21
2022-11-10T21:13:57.824Z,12.17
2022-11-10T21:14:57.819Z,12.20
2022-11-10T21:15:57.802Z,12.18
2022-11-10T21:16:57.721Z,12.22
2022-11-10T21:17:57.685Z,12.18
2022-11-10T21:18:57.650Z,12.20
2022-11-10T21:19:57.707Z,12.15
2022-11-10T21:20:57.605Z,12.22
2022-11-10T21:21:57.554Z,12.09
2022-11-10T21:23:03.064Z,12.17
2022-11-10T21:23:57.677Z,12.17
2022-11-10T21:24:57.441Z,12.13
2022-11-10T21:25:57.405Z,12.13
2022-11-10T21:26:57.369Z,12.12
2022-11-10T21:27:57.328Z,12.12
2022-11-10T21:28:57.301Z,12.09
2022-11-10T21:29:58.030Z,12.06
2022-11-10T21:30:57.253Z,12.04
2022-11-10T21:31:57.198Z,12.02
2022-11-10T21:32:57.188Z,12.06
2022-11-10T21:33:57.120Z,12.07
2022-11-10T21:34:57.076Z,12.09
2022-11-10T21:35:57.145Z,12.09
2022-11-10T21:36:57.009Z,12.09
2022-11-10T21:37:56.988Z,12.00
2022-11-10T21:38:56.940Z,11.95
2022-11-10T21:39:56.897Z,11.99
2022-11-10T21:40:56.870Z,12.06
2022-11-10T21:41:56.825Z,11.99
2022-11-10T21:42:56.785Z,12.04
2022-11-10T21:43:56.788Z,12.02
2022-11-10T21:44:56.722Z,12.06
2022-11-10T21:45:56.740Z,12.02
2022-11-10T21:46:56.657Z,12.04
2022-11-10T21:47:56.616Z,12.04
2022-11-10T21:48:56.587Z,12.06
2022-11-10T21:49:56.542Z,12.04
2022-11-10T21:50:56.609Z,12.02
2022-11-10T21:51:56.574Z,12.04
2022-11-10T21:52:56.437Z,12.04
2022-11-10T21:53:56.449Z,12.06
2022-11-10T21:54:56.363Z,11.99
2022-11-10T21:55:56.339Z,11.87
2022-11-10T21:56:56.296Z,12.00
2022-11-10T21:57:56.315Z,11.87
2022-11-10T21:58:56.225Z,11.97
2022-11-10T21:59:56.184Z,11.94
2022-11-10T22:00:56.148Z,11.90
2022-11-10T22:01:56.161Z,11.90
2022-11-10T22:02:56.085Z,11.91
2022-11-10T22:03:56.046Z,11.87
2022-11-10T22:04:56.004Z,11.87
2022-11-10T22:05:55.970Z,11.90
2022-11-10T22:06:55.974Z,11.86
2022-11-10T22:07:55.997Z,11.94
2022-11-10T22:08:55.860Z,11.86
2022-11-10T22:09:55.837Z,11.84
2022-11-10T22:10:55.796Z,11.90
2022-11-10T22:11:55.756Z,11.86
2022-11-10T22:12:55.725Z,11.90
2022-11-10T22:13:55.688Z,11.88
2022-11-10T22:14:55.648Z,11.87
2022-11-10T22:15:55.621Z,11.77
2022-11-10T22:16:55.645Z,11.77
2022-11-10T22:17:55.541Z,11.84
2022-11-10T22:18:55.506Z,11.83
2022-11-10T22:19:55.471Z,11.83
2022-11-10T22:20:55.432Z,11.78
2022-11-10T22:21:58.361Z,11.77
2022-11-10T22:22:55.362Z,11.81
2022-11-10T22:23:55.415Z,11.81
2022-11-10T22:24:55.286Z,11.80
2022-11-10T22:25:55.257Z,11.80
2022-11-10T22:26:55.214Z,11.75
2022-11-10T22:27:55.186Z,11.69
2022-11-10T22:28:55.153Z,11.69
2022-11-10T22:29:55.129Z,11.70
2022-11-10T22:30:55.085Z,11.70
2022-11-10T22:31:55.039Z,11.72
2022-11-10T22:32:55.005Z,11.70
2022-11-10T22:33:55.001Z,11.72
2022-11-10T22:34:54.939Z,11.68
2022-11-10T22:35:54.914Z,11.68
2022-11-10T22:36:54.856Z,11.72
2022-11-10T22:37:54.824Z,11.68
2022-11-10T22:38:59.104Z,11.70
2022-11-10T22:39:55.686Z,11.73
2022-11-10T22:40:54.712Z,11.70
2022-11-10T22:41:54.674Z,11.60
2022-11-10T22:42:54.656Z,11.69
2022-11-10T22:43:54.612Z,11.68
2022-11-10T22:44:54.563Z,11.68
2022-11-10T22:45:54.546Z,11.68
2022-11-10T22:46:54.493Z,11.68
2022-11-10T22:47:54.467Z,11.68
2022-11-10T22:48:54.453Z,11.69
2022-11-10T22:49:54.395Z,11.68
2022-11-10T22:50:54.352Z,11.55
2022-11-10T22:51:54.336Z,11.62
2022-11-10T22:52:54.303Z,11.63
2022-11-10T22:53:54.253Z,11.60
2022-11-10T22:54:54.212Z,11.63
2022-11-10T22:55:54.275Z,11.59
2022-11-10T22:56:54.146Z,11.57
2022-11-10T22:57:54.098Z,11.45
2022-11-10T22:58:59.441Z,11.59
2022-11-10T22:59:54.033Z,11.55
2022-11-10T23:00:53.992Z,11.57
2022-11-10T23:01:53.996Z,11.59
2022-11-10T23:02:53.925Z,11.55
2022-11-10T23:03:53.882Z,11.50
2022-11-10T23:04:53.861Z,11.57
2022-11-10T23:05:56.472Z,11.52
2022-11-10T23:06:53.827Z,11.54
2022-11-10T23:07:53.748Z,11.45
2022-11-10T23:08:53.707Z,11.44
2022-11-10T23:09:53.668Z,11.41
2022-11-10T23:10:53.643Z,11.48
2022-11-10T23:11:53.754Z,11.47
2022-11-10T23:12:53.559Z,11.45
2022-11-10T23:13:53.528Z,11.54
2022-11-10T23:14:53.491Z,11.45
2022-11-10T23:15:53.456Z,11.45
2022-11-10T23:16:53.425Z,11.43
2022-11-10T23:17:53.418Z,11.43
2022-11-10T23:18:53.351Z,11.37
2022-11-10T23:19:53.315Z,11.47
2022-11-10T23:20:53.276Z,11.45
2022-11-10T23:21:53.236Z,11.44
2022-11-10T23:22:53.201Z,11.47
2022-11-10T23:23:53.184Z,11.44
2022-11-10T23:24:56.956Z,11.37
2022-11-10T23:25:53.095Z,11.43
2022-11-10T23:26:53.064Z,11.45
2022-11-10T23:27:53.135Z,11.45
2022-11-10T23:28:53.005Z,11.41
2022-11-10T23:29:52.948Z,11.45
2022-11-10T23:30:52.915Z,11.40
2022-11-10T23:31:52.878Z,11.35
2022-11-10T23:32:52.834Z,11.32
2022-11-10T23:33:52.802Z,11.44
2022-11-10T23:34:52.775Z,11.33
2022-11-10T23:35:52.732Z,11.30
2022-11-10T23:36:52.700Z,11.36
2022-11-10T23:37:52.668Z,11.26
2022-11-10T23:38:52.643Z,11.32
2022-11-10T23:39:52.593Z,11.30
2022-11-10T23:40:52.557Z,11.29
2022-11-10T23:41:52.513Z,11.26
2022-11-10T23:42:52.539Z,11.26
2022-11-10T23:43:52.542Z,11.26
2022-11-10T23:44:52.406Z,11.29
2022-11-10T23:46:06.440Z,11.36
2022-11-10T23:46:52.334Z,11.22
2022-11-10T23:47:52.300Z,11.33
2022-11-10T23:48:52.268Z,11.30
2022-11-10T23:49:52.236Z,11.30
2022-11-10T23:50:52.192Z,11.27
2022-11-10T23:51:52.157Z,11.25
2022-11-10T23:52:52.129Z,11.37
2022-11-10T23:53:52.084Z,11.37
2022-11-10T23:54:52.050Z,11.29
2022-11-10T23:55:52.007Z,11.33
2022-11-10T23:56:51.970Z,11.27
2022-11-10T23:57:51.935Z,11.32
2022-11-10T23:58:51.900Z,11.25
2022-11-10T23:59:51.961Z,11.33
